sensor_id;sensor_type;location;lat;lon;timestamp;P1;durP1;ratioP1;P2;durP2;ratioP2
22111;SDS011;11222;50.872;4.312;2022-09-29T00:00:23;10.23;;;7.90;;
22111;SDS011;11222;50.872;4.312;2022-09-29T00:02:50;11.85;;;8.32;;
22111;SDS011;11222;50.872;4.312;2022-09-29T00:05:17;10.52;;;8.10;;
22111;SDS011;11222;50.872;4.312;2022-09-29T00:07:42;11.45;;;7.80;;
22111;SDS011;11222;50.872;4.312;2022-09-29T00:10:08;9.73;;;7.85;;
22111;SDS011;11222;50.872;4.312;2022-09-29T00:12:34;10.45;;;7.88;;
22111;SDS011;11222;50.872;4.312;2022-09-29T00:15:00;15.43;;;8.20;;
22111;SDS011;11222;50.872;4.312;2022-09-29T00:17:26;14.02;;;8.35;;
22111;SDS011;11222;50.872;4.312;2022-09-29T00:19:51;11.52;;;8.20;;
22111;SDS011;11222;50.872;4.312;2022-09-29T00:22:17;9.30;;;7.72;;
22111;SDS011;11222;50.872;4.312;2022-09-29T00:24:42;14.68;;;8.43;;
22111;SDS011;11222;50.872;4.312;2022-09-29T00:27:08;12.93;;;8.20;;
22111;SDS011;11222;50.872;4.312;2022-09-29T00:29:34;13.52;;;8.45;;
22111;SDS011;11222;50.872;4.312;2022-09-29T00:31:59;11.65;;;7.93;;
22111;SDS011;11222;50.872;4.312;2022-09-29T00:34:25;10.75;;;8.35;;
22111;SDS011;11222;50.872;4.312;2022-09-29T00:36:51;11.68;;;7.65;;
22111;SDS011;11222;50.872;4.312;2022-09-29T00:39:16;10.55;;;7.80;;
22111;SDS011;11222;50.872;4.312;2022-09-29T00:41:42;10.82;;;8.18;;
22111;SDS011;11222;50.872;4.312;2022-09-29T00:46:56;11.35;;;8.00;;
22111;SDS011;11222;50.872;4.312;2022-09-29T00:52:16;13.93;;;8.80;;
22111;SDS011;11222;50.872;4.312;2022-09-29T00:54:52;10.23;;;8.13;;
22111;SDS011;11222;50.872;4.312;2022-09-29T00:57:25;11.90;;;8.40;;
22111;SDS011;11222;50.872;4.312;2022-09-29T01:02:20;11.15;;;8.80;;
22111;SDS011;11222;50.872;4.312;2022-09-29T01:04:47;11.32;;;8.45;;
22111;SDS011;11222;50.872;4.312;2022-09-29T01:07:16;11.25;;;8.60;;
22111;SDS011;11222;50.872;4.312;2022-09-29T01:09:43;14.05;;;8.77;;
22111;SDS011;11222;50.872;4.312;2022-09-29T01:12:10;13.55;;;8.93;;
22111;SDS011;11222;50.872;4.312;2022-09-29T01:14:35;9.57;;;8.15;;
22111;SDS011;11222;50.872;4.312;2022-09-29T01:17:02;11.63;;;8.45;;
22111;SDS011;11222;50.872;4.312;2022-09-29T01:33:00;13.30;;;8.82;;
22111;SDS011;11222;50.872;4.312;2022-09-29T01:41:37;12.65;;;8.82;;
22111;SDS011;11222;50.872;4.312;2022-09-29T01:44:08;14.73;;;8.38;;
22111;SDS011;11222;50.872;4.312;2022-09-29T01:46:36;13.88;;;8.85;;
22111;SDS011;11222;50.872;4.312;2022-09-29T01:49:08;12.30;;;8.70;;
22111;SDS011;11222;50.872;4.312;2022-09-29T01:51:39;12.57;;;9.02;;
22111;SDS011;11222;50.872;4.312;2022-09-29T01:54:12;12.82;;;8.05;;
22111;SDS011;11222;50.872;4.312;2022-09-29T01:56:43;11.55;;;8.82;;
22111;SDS011;11222;50.872;4.312;2022-09-29T01:59:23;14.70;;;8.82;;
22111;SDS011;11222;50.872;4.312;2022-09-29T02:01:52;16.15;;;8.93;;
22111;SDS011;11222;50.872;4.312;2022-09-29T02:04:24;14.93;;;9.27;;
22111;SDS011;11222;50.872;4.312;2022-09-29T02:06:59;13.00;;;8.85;;
22111;SDS011;11222;50.872;4.312;2022-09-29T02:09:35;13.93;;;8.82;;
22111;SDS011;11222;50.872;4.312;2022-09-29T02:12:05;12.85;;;8.93;;
22111;SDS011;11222;50.872;4.312;2022-09-29T02:14:38;11.70;;;8.25;;
22111;SDS011;11222;50.872;4.312;2022-09-29T02:17:16;13.60;;;8.90;;
22111;SDS011;11222;50.872;4.312;2022-09-29T02:19:49;13.70;;;8.68;;
22111;SDS011;11222;50.872;4.312;2022-09-29T02:22:16;17.75;;;9.05;;
22111;SDS011;11222;50.872;4.312;2022-09-29T02:24:42;17.33;;;9.27;;
22111;SDS011;11222;50.872;4.312;2022-09-29T02:27:09;14.10;;;9.10;;
22111;SDS011;11222;50.872;4.312;2022-09-29T02:29:35;15.05;;;9.15;;
22111;SDS011;11222;50.872;4.312;2022-09-29T02:32:02;14.77;;;8.85;;
22111;SDS011;11222;50.872;4.312;2022-09-29T02:34:31;12.98;;;8.38;;
22111;SDS011;11222;50.872;4.312;2022-09-29T02:45:20;13.32;;;8.98;;
22111;SDS011;11222;50.872;4.312;2022-09-29T02:48:18;13.93;;;8.98;;
22111;SDS011;11222;50.872;4.312;2022-09-29T02:51:04;13.25;;;8.82;;
22111;SDS011;11222;50.872;4.312;2022-09-29T02:57:27;12.73;;;8.73;;
22111;SDS011;11222;50.872;4.312;2022-09-29T03:00:03;20.23;;;9.43;;
22111;SDS011;11222;50.872;4.312;2022-09-29T03:02:33;17.30;;;8.68;;
22111;SDS011;11222;50.872;4.312;2022-09-29T03:04:59;15.95;;;8.90;;
22111;SDS011;11222;50.872;4.312;2022-09-29T03:07:26;15.00;;;9.05;;
22111;SDS011;11222;50.872;4.312;2022-09-29T03:09:52;16.42;;;9.40;;
22111;SDS011;11222;50.872;4.312;2022-09-29T03:12:18;13.82;;;9.40;;
22111;SDS011;11222;50.872;4.312;2022-09-29T03:14:44;15.98;;;9.05;;
22111;SDS011;11222;50.872;4.312;2022-09-29T03:17:10;12.23;;;9.10;;
22111;SDS011;11222;50.872;4.312;2022-09-29T03:19:36;11.32;;;8.27;;
22111;SDS011;11222;50.872;4.312;2022-09-29T03:22:01;11.95;;;8.68;;
22111;SDS011;11222;50.872;4.312;2022-09-29T03:24:28;14.00;;;9.60;;
22111;SDS011;11222;50.872;4.312;2022-09-29T03:26:53;13.10;;;8.10;;
22111;SDS011;11222;50.872;4.312;2022-09-29T03:29:19;12.98;;;8.20;;
22111;SDS011;11222;50.872;4.312;2022-09-29T03:31:45;11.93;;;8.25;;
22111;SDS011;11222;50.872;4.312;2022-09-29T03:34:11;11.07;;;8.13;;
22111;SDS011;11222;50.872;4.312;2022-09-29T03:36:36;13.68;;;8.07;;
22111;SDS011;11222;50.872;4.312;2022-09-29T03:39:02;12.32;;;7.95;;
22111;SDS011;11222;50.872;4.312;2022-09-29T03:41:28;15.18;;;8.32;;
22111;SDS011;11222;50.872;4.312;2022-09-29T03:43:53;16.77;;;8.27;;
22111;SDS011;11222;50.872;4.312;2022-09-29T03:46:19;9.95;;;7.55;;
22111;SDS011;11222;50.872;4.312;2022-09-29T03:48:45;12.00;;;7.72;;
22111;SDS011;11222;50.872;4.312;2022-09-29T03:51:10;11.70;;;7.68;;
22111;SDS011;11222;50.872;4.312;2022-09-29T03:53:36;10.23;;;7.80;;
22111;SDS011;11222;50.872;4.312;2022-09-29T03:56:02;10.75;;;7.88;;
22111;SDS011;11222;50.872;4.312;2022-09-29T03:58:28;11.43;;;8.77;;
22111;SDS011;11222;50.872;4.312;2022-09-29T04:00:54;12.23;;;7.80;;
22111;SDS011;11222;50.872;4.312;2022-09-29T04:03:19;11.93;;;8.07;;
22111;SDS011;11222;50.872;4.312;2022-09-29T04:05:46;11.63;;;7.35;;
22111;SDS011;11222;50.872;4.312;2022-09-29T04:08:12;11.48;;;8.13;;
22111;SDS011;11222;50.872;4.312;2022-09-29T04:10:39;12.55;;;8.48;;
22111;SDS011;11222;50.872;4.312;2022-09-29T04:13:05;13.73;;;8.20;;
22111;SDS011;11222;50.872;4.312;2022-09-29T04:15:32;11.55;;;8.20;;
22111;SDS011;11222;50.872;4.312;2022-09-29T04:17:58;11.70;;;8.13;;
22111;SDS011;11222;50.872;4.312;2022-09-29T04:20:24;13.20;;;8.45;;
22111;SDS011;11222;50.872;4.312;2022-09-29T04:22:50;11.85;;;8.25;;
22111;SDS011;11222;50.872;4.312;2022-09-29T04:25:16;12.45;;;8.05;;
22111;SDS011;11222;50.872;4.312;2022-09-29T04:27:42;13.13;;;8.40;;
22111;SDS011;11222;50.872;4.312;2022-09-29T04:30:08;13.68;;;8.25;;
22111;SDS011;11222;50.872;4.312;2022-09-29T04:32:34;13.25;;;8.10;;
22111;SDS011;11222;50.872;4.312;2022-09-29T04:35:00;11.65;;;8.52;;
22111;SDS011;11222;50.872;4.312;2022-09-29T04:37:26;14.38;;;8.68;;
22111;SDS011;11222;50.872;4.312;2022-09-29T04:39:52;11.85;;;8.48;;
22111;SDS011;11222;50.872;4.312;2022-09-29T04:42:18;13.18;;;8.43;;
22111;SDS011;11222;50.872;4.312;2022-09-29T04:44:44;10.90;;;8.23;;
22111;SDS011;11222;50.872;4.312;2022-09-29T04:47:10;11.88;;;8.55;;
22111;SDS011;11222;50.872;4.312;2022-09-29T04:49:36;12.50;;;8.75;;
22111;SDS011;11222;50.872;4.312;2022-09-29T04:52:02;15.57;;;8.98;;
22111;SDS011;11222;50.872;4.312;2022-09-29T04:54:31;12.95;;;8.10;;
22111;SDS011;11222;50.872;4.312;2022-09-29T04:56:58;16.40;;;8.55;;
22111;SDS011;11222;50.872;4.312;2022-09-29T04:59:25;14.20;;;8.75;;
22111;SDS011;11222;50.872;4.312;2022-09-29T05:01:51;13.35;;;8.40;;
22111;SDS011;11222;50.872;4.312;2022-09-29T05:04:17;11.75;;;8.32;;
22111;SDS011;11222;50.872;4.312;2022-09-29T05:06:43;12.38;;;8.45;;
22111;SDS011;11222;50.872;4.312;2022-09-29T05:09:09;12.95;;;8.18;;
22111;SDS011;11222;50.872;4.312;2022-09-29T05:11:35;12.52;;;8.35;;
22111;SDS011;11222;50.872;4.312;2022-09-29T05:14:01;13.32;;;8.90;;
22111;SDS011;11222;50.872;4.312;2022-09-29T05:16:26;19.02;;;9.30;;
22111;SDS011;11222;50.872;4.312;2022-09-29T05:18:52;14.98;;;8.57;;
22111;SDS011;11222;50.872;4.312;2022-09-29T05:21:18;14.13;;;9.15;;
22111;SDS011;11222;50.872;4.312;2022-09-29T05:23:45;16.75;;;8.32;;
22111;SDS011;11222;50.872;4.312;2022-09-29T05:26:11;14.93;;;8.88;;
22111;SDS011;11222;50.872;4.312;2022-09-29T05:28:37;13.95;;;8.65;;
22111;SDS011;11222;50.872;4.312;2022-09-29T05:31:07;14.25;;;9.15;;
22111;SDS011;11222;50.872;4.312;2022-09-29T05:33:34;13.10;;;9.82;;
22111;SDS011;11222;50.872;4.312;2022-09-29T05:36:03;18.30;;;10.15;;
22111;SDS011;11222;50.872;4.312;2022-09-29T05:38:31;14.02;;;8.90;;
22111;SDS011;11222;50.872;4.312;2022-09-29T05:41:02;16.83;;;8.68;;
22111;SDS011;11222;50.872;4.312;2022-09-29T05:43:28;16.00;;;9.13;;
22111;SDS011;11222;50.872;4.312;2022-09-29T05:46:01;18.17;;;8.77;;
22111;SDS011;11222;50.872;4.312;2022-09-29T05:48:31;14.27;;;8.68;;
22111;SDS011;11222;50.872;4.312;2022-09-29T05:50:57;20.75;;;9.35;;
22111;SDS011;11222;50.872;4.312;2022-09-29T05:53:24;12.32;;;9.00;;
22111;SDS011;11222;50.872;4.312;2022-09-29T05:55:50;21.83;;;8.82;;
22111;SDS011;11222;50.872;4.312;2022-09-29T05:58:16;17.38;;;9.60;;
22111;SDS011;11222;50.872;4.312;2022-09-29T06:00:43;18.05;;;9.75;;
22111;SDS011;11222;50.872;4.312;2022-09-29T06:03:09;16.30;;;9.77;;
22111;SDS011;11222;50.872;4.312;2022-09-29T06:05:37;15.93;;;9.30;;
22111;SDS011;11222;50.872;4.312;2022-09-29T06:08:03;16.70;;;10.00;;
22111;SDS011;11222;50.872;4.312;2022-09-29T06:10:29;20.08;;;9.73;;
22111;SDS011;11222;50.872;4.312;2022-09-29T06:12:56;16.02;;;9.73;;
22111;SDS011;11222;50.872;4.312;2022-09-29T06:15:22;20.40;;;9.75;;
22111;SDS011;11222;50.872;4.312;2022-09-29T06:17:53;19.42;;;9.32;;
22111;SDS011;11222;50.872;4.312;2022-09-29T06:20:20;22.40;;;10.65;;
22111;SDS011;11222;50.872;4.312;2022-09-29T06:22:46;12.95;;;9.20;;
22111;SDS011;11222;50.872;4.312;2022-09-29T06:25:12;14.95;;;9.38;;
22111;SDS011;11222;50.872;4.312;2022-09-29T06:27:38;16.67;;;9.52;;
22111;SDS011;11222;50.872;4.312;2022-09-29T06:30:04;17.02;;;9.50;;
22111;SDS011;11222;50.872;4.312;2022-09-29T06:32:30;16.42;;;9.50;;
22111;SDS011;11222;50.872;4.312;2022-09-29T06:34:57;18.30;;;9.50;;
22111;SDS011;11222;50.872;4.312;2022-09-29T06:37:42;18.10;;;10.10;;
22111;SDS011;11222;50.872;4.312;2022-09-29T06:40:11;12.15;;;9.35;;
22111;SDS011;11222;50.872;4.312;2022-09-29T06:42:37;18.05;;;9.55;;
22111;SDS011;11222;50.872;4.312;2022-09-29T06:45:03;13.18;;;8.60;;
22111;SDS011;11222;50.872;4.312;2022-09-29T06:47:29;19.42;;;9.70;;
22111;SDS011;11222;50.872;4.312;2022-09-29T06:49:55;24.33;;;9.30;;
22111;SDS011;11222;50.872;4.312;2022-09-29T06:52:23;16.20;;;9.00;;
22111;SDS011;11222;50.872;4.312;2022-09-29T06:54:49;13.90;;;8.00;;
22111;SDS011;11222;50.872;4.312;2022-09-29T06:57:15;14.98;;;8.35;;
22111;SDS011;11222;50.872;4.312;2022-09-29T06:59:42;11.90;;;7.88;;
22111;SDS011;11222;50.872;4.312;2022-09-29T07:02:08;12.52;;;7.80;;
22111;SDS011;11222;50.872;4.312;2022-09-29T07:04:35;17.15;;;8.65;;
22111;SDS011;11222;50.872;4.312;2022-09-29T07:07:00;13.35;;;8.07;;
22111;SDS011;11222;50.872;4.312;2022-09-29T07:09:26;17.17;;;8.07;;
22111;SDS011;11222;50.872;4.312;2022-09-29T07:11:52;16.40;;;8.40;;
22111;SDS011;11222;50.872;4.312;2022-09-29T07:14:18;16.90;;;8.45;;
22111;SDS011;11222;50.872;4.312;2022-09-29T07:16:46;22.20;;;11.57;;
22111;SDS011;11222;50.872;4.312;2022-09-29T07:19:13;16.92;;;7.75;;
22111;SDS011;11222;50.872;4.312;2022-09-29T07:21:39;19.65;;;8.10;;
22111;SDS011;11222;50.872;4.312;2022-09-29T07:24:04;12.98;;;7.75;;
22111;SDS011;11222;50.872;4.312;2022-09-29T07:26:30;12.23;;;7.55;;
22111;SDS011;11222;50.872;4.312;2022-09-29T07:28:56;12.30;;;8.00;;
22111;SDS011;11222;50.872;4.312;2022-09-29T07:31:22;13.05;;;8.18;;
22111;SDS011;11222;50.872;4.312;2022-09-29T07:33:48;11.63;;;7.82;;
22111;SDS011;11222;50.872;4.312;2022-09-29T07:36:15;15.65;;;7.93;;
22111;SDS011;11222;50.872;4.312;2022-09-29T07:38:46;10.30;;;7.30;;
22111;SDS011;11222;50.872;4.312;2022-09-29T07:41:13;18.75;;;8.00;;
22111;SDS011;11222;50.872;4.312;2022-09-29T07:43:39;14.35;;;7.80;;
22111;SDS011;11222;50.872;4.312;2022-09-29T07:46:05;12.75;;;8.32;;
22111;SDS011;11222;50.872;4.312;2022-09-29T07:48:32;12.50;;;7.50;;
22111;SDS011;11222;50.872;4.312;2022-09-29T07:50:59;14.57;;;8.88;;
22111;SDS011;11222;50.872;4.312;2022-09-29T07:53:33;14.25;;;8.48;;
22111;SDS011;11222;50.872;4.312;2022-09-29T07:58:34;18.42;;;8.27;;
22111;SDS011;11222;50.872;4.312;2022-09-29T08:01:01;14.77;;;8.00;;
22111;SDS011;11222;50.872;4.312;2022-09-29T08:03:30;14.88;;;8.48;;
22111;SDS011;11222;50.872;4.312;2022-09-29T08:05:56;12.68;;;7.28;;
22111;SDS011;11222;50.872;4.312;2022-09-29T08:08:23;17.20;;;8.70;;
22111;SDS011;11222;50.872;4.312;2022-09-29T08:10:49;23.35;;;9.15;;
22111;SDS011;11222;50.872;4.312;2022-09-29T08:13:15;14.93;;;8.55;;
22111;SDS011;11222;50.872;4.312;2022-09-29T08:15:41;19.58;;;8.80;;
22111;SDS011;11222;50.872;4.312;2022-09-29T08:18:06;11.52;;;7.68;;
22111;SDS011;11222;50.872;4.312;2022-09-29T08:20:33;15.50;;;8.30;;
22111;SDS011;11222;50.872;4.312;2022-09-29T08:23:00;12.23;;;8.27;;
22111;SDS011;11222;50.872;4.312;2022-09-29T08:25:25;13.55;;;8.25;;
22111;SDS011;11222;50.872;4.312;2022-09-29T08:27:51;13.77;;;9.23;;
22111;SDS011;11222;50.872;4.312;2022-09-29T08:30:18;32.45;;;9.52;;
22111;SDS011;11222;50.872;4.312;2022-09-29T08:32:49;11.32;;;8.20;;
22111;SDS011;11222;50.872;4.312;2022-09-29T08:35:18;9.85;;;7.30;;
22111;SDS011;11222;50.872;4.312;2022-09-29T08:37:45;16.98;;;8.88;;
22111;SDS011;11222;50.872;4.312;2022-09-29T08:40:10;16.77;;;8.43;;
22111;SDS011;11222;50.872;4.312;2022-09-29T08:45:27;16.30;;;7.75;;
22111;SDS011;11222;50.872;4.312;2022-09-29T08:48:00;12.15;;;7.95;;
22111;SDS011;11222;50.872;4.312;2022-09-29T08:50:41;33.83;;;8.95;;
22111;SDS011;11222;50.872;4.312;2022-09-29T08:53:12;12.27;;;6.90;;
22111;SDS011;11222;50.872;4.312;2022-09-29T08:55:43;11.55;;;6.82;;
22111;SDS011;11222;50.872;4.312;2022-09-29T08:58:21;16.75;;;7.15;;
22111;SDS011;11222;50.872;4.312;2022-09-29T09:06:52;13.98;;;5.68;;
22111;SDS011;11222;50.872;4.312;2022-09-29T09:10:00;8.63;;;5.47;;
22111;SDS011;11222;50.872;4.312;2022-09-29T09:12:27;10.35;;;6.38;;
22111;SDS011;11222;50.872;4.312;2022-09-29T09:15:28;11.77;;;6.93;;
22111;SDS011;11222;50.872;4.312;2022-09-29T09:26:29;12.55;;;6.35;;
22111;SDS011;11222;50.872;4.312;2022-09-29T09:29:01;9.98;;;6.13;;
22111;SDS011;11222;50.872;4.312;2022-09-29T09:31:40;8.88;;;6.25;;
22111;SDS011;11222;50.872;4.312;2022-09-29T09:39:31;11.98;;;6.32;;
22111;SDS011;11222;50.872;4.312;2022-09-29T09:42:00;6.88;;;5.35;;
22111;SDS011;11222;50.872;4.312;2022-09-29T09:44:33;5.40;;;4.90;;
22111;SDS011;11222;50.872;4.312;2022-09-29T09:47:11;6.32;;;4.88;;
22111;SDS011;11222;50.872;4.312;2022-09-29T09:50:15;8.23;;;4.50;;
22111;SDS011;11222;50.872;4.312;2022-09-29T09:52:52;6.88;;;5.13;;
22111;SDS011;11222;50.872;4.312;2022-09-29T09:55:23;8.43;;;5.95;;
22111;SDS011;11222;50.872;4.312;2022-09-29T09:58:11;5.07;;;4.57;;
22111;SDS011;11222;50.872;4.312;2022-09-29T10:01:00;5.45;;;4.32;;
22111;SDS011;11222;50.872;4.312;2022-09-29T10:03:28;11.40;;;4.78;;
22111;SDS011;11222;50.872;4.312;2022-09-29T10:05:55;7.10;;;4.25;;
22111;SDS011;11222;50.872;4.312;2022-09-29T10:10:51;24.23;;;5.53;;
22111;SDS011;11222;50.872;4.312;2022-09-29T10:13:17;6.82;;;4.53;;
22111;SDS011;11222;50.872;4.312;2022-09-29T10:15:48;4.07;;;3.60;;
22111;SDS011;11222;50.872;4.312;2022-09-29T10:18:38;30.60;;;5.90;;
22111;SDS011;11222;50.872;4.312;2022-09-29T10:21:17;6.05;;;4.18;;
22111;SDS011;11222;50.872;4.312;2022-09-29T10:23:53;3.88;;;3.45;;
22111;SDS011;11222;50.872;4.312;2022-09-29T10:26:21;5.05;;;3.80;;
22111;SDS011;11222;50.872;4.312;2022-09-29T10:28:51;5.65;;;3.95;;
22111;SDS011;11222;50.872;4.312;2022-09-29T10:31:33;6.78;;;3.80;;
22111;SDS011;11222;50.872;4.312;2022-09-29T10:34:12;4.57;;;3.95;;
22111;SDS011;11222;50.872;4.312;2022-09-29T10:37:41;6.45;;;3.95;;
22111;SDS011;11222;50.872;4.312;2022-09-29T10:39:47;4.22;;;3.70;;
22111;SDS011;11222;50.872;4.312;2022-09-29T10:42:23;4.20;;;3.88;;
22111;SDS011;11222;50.872;4.312;2022-09-29T10:44:52;5.80;;;3.60;;
22111;SDS011;11222;50.872;4.312;2022-09-29T10:47:38;3.85;;;2.67;;
22111;SDS011;11222;50.872;4.312;2022-09-29T10:50:10;4.55;;;3.95;;
22111;SDS011;11222;50.872;4.312;2022-09-29T10:55:21;2.83;;;2.63;;
22111;SDS011;11222;50.872;4.312;2022-09-29T10:57:51;3.92;;;3.30;;
22111;SDS011;11222;50.872;4.312;2022-09-29T11:05:51;4.13;;;3.60;;
22111;SDS011;11222;50.872;4.312;2022-09-29T11:08:54;3.70;;;2.83;;
22111;SDS011;11222;50.872;4.312;2022-09-29T11:11:29;4.15;;;2.97;;
22111;SDS011;11222;50.872;4.312;2022-09-29T11:13:58;3.83;;;3.00;;
22111;SDS011;11222;50.872;4.312;2022-09-29T11:16:31;3.25;;;2.83;;
22111;SDS011;11222;50.872;4.312;2022-09-29T11:19:00;3.78;;;2.90;;
22111;SDS011;11222;50.872;4.312;2022-09-29T11:21:40;6.68;;;2.90;;
22111;SDS011;11222;50.872;4.312;2022-09-29T11:27:15;3.20;;;2.92;;
22111;SDS011;11222;50.872;4.312;2022-09-29T11:30:05;3.20;;;2.90;;
22111;SDS011;11222;50.872;4.312;2022-09-29T11:41:01;3.50;;;2.50;;
22111;SDS011;11222;50.872;4.312;2022-09-29T11:51:41;3.63;;;2.72;;
22111;SDS011;11222;50.872;4.312;2022-09-29T12:00:08;5.30;;;2.45;;
22111;SDS011;11222;50.872;4.312;2022-09-29T12:05:25;10.48;;;3.35;;
22111;SDS011;11222;50.872;4.312;2022-09-29T12:16:19;3.58;;;2.47;;
22111;SDS011;11222;50.872;4.312;2022-09-29T12:18:54;3.00;;;2.13;;
22111;SDS011;11222;50.872;4.312;2022-09-29T12:21:31;8.05;;;6.57;;
22111;SDS011;11222;50.872;4.312;2022-09-29T12:24:02;4.60;;;3.35;;
22111;SDS011;11222;50.872;4.312;2022-09-29T12:26:31;8.15;;;4.13;;
22111;SDS011;11222;50.872;4.312;2022-09-29T12:29:06;6.70;;;2.75;;
22111;SDS011;11222;50.872;4.312;2022-09-29T12:31:54;4.00;;;3.20;;
22111;SDS011;11222;50.872;4.312;2022-09-29T12:34:45;2.50;;;2.30;;
22111;SDS011;11222;50.872;4.312;2022-09-29T12:37:33;5.53;;;2.30;;
22111;SDS011;11222;50.872;4.312;2022-09-29T12:40:15;5.82;;;2.95;;
22111;SDS011;11222;50.872;4.312;2022-09-29T12:43:20;4.25;;;3.00;;
22111;SDS011;11222;50.872;4.312;2022-09-29T12:45:45;2.53;;;2.28;;
22111;SDS011;11222;50.872;4.312;2022-09-29T12:57:04;2.30;;;2.10;;
22111;SDS011;11222;50.872;4.312;2022-09-29T13:13:13;3.13;;;1.98;;
22111;SDS011;11222;50.872;4.312;2022-09-29T13:30:13;3.58;;;2.15;;
22111;SDS011;11222;50.872;4.312;2022-09-29T13:35:36;7.55;;;2.30;;
22111;SDS011;11222;50.872;4.312;2022-09-29T13:38:10;3.58;;;2.00;;
22111;SDS011;11222;50.872;4.312;2022-09-29T13:51:47;3.42;;;1.88;;
22111;SDS011;11222;50.872;4.312;2022-09-29T13:59:36;3.42;;;2.00;;
22111;SDS011;11222;50.872;4.312;2022-09-29T14:05:03;6.20;;;2.20;;
22111;SDS011;11222;50.872;4.312;2022-09-29T14:07:43;2.70;;;1.92;;
22111;SDS011;11222;50.872;4.312;2022-09-29T14:13:00;4.10;;;2.40;;
22111;SDS011;11222;50.872;4.312;2022-09-29T14:15:33;2.63;;;2.00;;
22111;SDS011;11222;50.872;4.312;2022-09-29T14:18:19;3.08;;;2.13;;
22111;SDS011;11222;50.872;4.312;2022-09-29T14:20:58;2.85;;;2.05;;
22111;SDS011;11222;50.872;4.312;2022-09-29T14:29:17;2.88;;;1.90;;
22111;SDS011;11222;50.872;4.312;2022-09-29T14:31:49;3.08;;;2.20;;
22111;SDS011;11222;50.872;4.312;2022-09-29T14:34:19;2.13;;;1.90;;
22111;SDS011;11222;50.872;4.312;2022-09-29T14:36:47;2.38;;;1.70;;
22111;SDS011;11222;50.872;4.312;2022-09-29T14:39:15;3.17;;;1.95;;
22111;SDS011;11222;50.872;4.312;2022-09-29T14:41:42;4.65;;;1.90;;
22111;SDS011;11222;50.872;4.312;2022-09-29T14:44:20;4.40;;;2.15;;
22111;SDS011;11222;50.872;4.312;2022-09-29T14:46:56;6.75;;;3.28;;
22111;SDS011;11222;50.872;4.312;2022-09-29T14:59:01;6.57;;;2.15;;
22111;SDS011;11222;50.872;4.312;2022-09-29T15:04:13;3.80;;;2.70;;
22111;SDS011;11222;50.872;4.312;2022-09-29T15:06:47;4.43;;;2.63;;
22111;SDS011;11222;50.872;4.312;2022-09-29T15:09:15;6.50;;;3.30;;
22111;SDS011;11222;50.872;4.312;2022-09-29T15:11:42;5.13;;;2.90;;
22111;SDS011;11222;50.872;4.312;2022-09-29T15:27:23;3.35;;;2.80;;
22111;SDS011;11222;50.872;4.312;2022-09-29T15:29:52;4.68;;;2.72;;
22111;SDS011;11222;50.872;4.312;2022-09-29T15:32:23;3.63;;;2.40;;
22111;SDS011;11222;50.872;4.312;2022-09-29T15:35:04;7.18;;;2.55;;
22111;SDS011;11222;50.872;4.312;2022-09-29T15:40:23;6.43;;;3.20;;
22111;SDS011;11222;50.872;4.312;2022-09-29T15:42:52;4.07;;;2.60;;
22111;SDS011;11222;50.872;4.312;2022-09-29T15:45:25;4.00;;;2.72;;
22111;SDS011;11222;50.872;4.312;2022-09-29T15:48:05;8.05;;;3.35;;
22111;SDS011;11222;50.872;4.312;2022-09-29T15:50:32;4.65;;;3.45;;
22111;SDS011;11222;50.872;4.312;2022-09-29T15:53:05;6.28;;;3.33;;
22111;SDS011;11222;50.872;4.312;2022-09-29T15:55:33;6.57;;;3.63;;
22111;SDS011;11222;50.872;4.312;2022-09-29T15:57:58;4.80;;;3.95;;
22111;SDS011;11222;50.872;4.312;2022-09-29T16:03:03;7.97;;;3.88;;
22111;SDS011;11222;50.872;4.312;2022-09-29T16:05:39;6.93;;;3.63;;
22111;SDS011;11222;50.872;4.312;2022-09-29T16:08:20;7.32;;;4.18;;
22111;SDS011;11222;50.872;4.312;2022-09-29T16:10:49;5.60;;;3.58;;
22111;SDS011;11222;50.872;4.312;2022-09-29T16:13:20;7.60;;;4.18;;
22111;SDS011;11222;50.872;4.312;2022-09-29T16:15:49;8.90;;;3.67;;
22111;SDS011;11222;50.872;4.312;2022-09-29T16:18:41;6.22;;;4.00;;
22111;SDS011;11222;50.872;4.312;2022-09-29T16:21:11;7.85;;;4.25;;
22111;SDS011;11222;50.872;4.312;2022-09-29T16:24:28;4.00;;;3.65;;
22111;SDS011;11222;50.872;4.312;2022-09-29T16:26:41;10.23;;;4.00;;
22111;SDS011;11222;50.872;4.312;2022-09-29T16:31:35;5.57;;;3.58;;
22111;SDS011;11222;50.872;4.312;2022-09-29T16:36:49;6.05;;;3.92;;
22111;SDS011;11222;50.872;4.312;2022-09-29T16:39:16;9.65;;;5.60;;
22111;SDS011;11222;50.872;4.312;2022-09-29T16:41:49;6.50;;;4.70;;
22111;SDS011;11222;50.872;4.312;2022-09-29T16:44:19;6.25;;;4.40;;
22111;SDS011;11222;50.872;4.312;2022-09-29T16:49:34;4.82;;;3.47;;
22111;SDS011;11222;50.872;4.312;2022-09-29T16:52:11;6.45;;;4.10;;
22111;SDS011;11222;50.872;4.312;2022-09-29T16:54:51;6.55;;;5.93;;
22111;SDS011;11222;50.872;4.312;2022-09-29T16:59:55;4.53;;;3.60;;
22111;SDS011;11222;50.872;4.312;2022-09-29T17:02:23;5.07;;;3.42;;
22111;SDS011;11222;50.872;4.312;2022-09-29T17:04:50;6.65;;;4.57;;
22111;SDS011;11222;50.872;4.312;2022-09-29T17:07:18;4.97;;;3.70;;
22111;SDS011;11222;50.872;4.312;2022-09-29T17:09:46;7.18;;;3.65;;
22111;SDS011;11222;50.872;4.312;2022-09-29T17:12:14;4.03;;;3.50;;
22111;SDS011;11222;50.872;4.312;2022-09-29T17:14:41;4.00;;;3.60;;
22111;SDS011;11222;50.872;4.312;2022-09-29T17:17:12;5.75;;;3.20;;
22111;SDS011;11222;50.872;4.312;2022-09-29T17:19:42;3.75;;;3.45;;
22111;SDS011;11222;50.872;4.312;2022-09-29T17:24:57;4.80;;;3.17;;
22111;SDS011;11222;50.872;4.312;2022-09-29T17:27:24;3.78;;;3.47;;
22111;SDS011;11222;50.872;4.312;2022-09-29T17:30:10;5.38;;;3.88;;
22111;SDS011;11222;50.872;4.312;2022-09-29T17:32:41;3.88;;;3.20;;
22111;SDS011;11222;50.872;4.312;2022-09-29T17:35:08;3.60;;;3.30;;
22111;SDS011;11222;50.872;4.312;2022-09-29T17:37:37;5.65;;;3.60;;
22111;SDS011;11222;50.872;4.312;2022-09-29T17:40:08;3.97;;;3.67;;
22111;SDS011;11222;50.872;4.312;2022-09-29T17:42:37;4.43;;;4.03;;
22111;SDS011;11222;50.872;4.312;2022-09-29T17:45:03;4.60;;;3.78;;
22111;SDS011;11222;50.872;4.312;2022-09-29T17:47:29;4.20;;;3.85;;
22111;SDS011;11222;50.872;4.312;2022-09-29T17:49:54;9.77;;;3.92;;
22111;SDS011;11222;50.872;4.312;2022-09-29T17:52:20;6.85;;;4.82;;
22111;SDS011;11222;50.872;4.312;2022-09-29T17:54:45;4.38;;;3.97;;
22111;SDS011;11222;50.872;4.312;2022-09-29T17:57:17;4.40;;;4.00;;
22111;SDS011;11222;50.872;4.312;2022-09-29T17:59:47;4.93;;;3.80;;
22111;SDS011;11222;50.872;4.312;2022-09-29T18:02:13;4.05;;;3.75;;
22111;SDS011;11222;50.872;4.312;2022-09-29T18:04:38;4.40;;;4.00;;
22111;SDS011;11222;50.872;4.312;2022-09-29T18:07:12;5.30;;;4.10;;
22111;SDS011;11222;50.872;4.312;2022-09-29T18:09:38;3.90;;;3.60;;
22111;SDS011;11222;50.872;4.312;2022-09-29T18:12:05;4.47;;;4.07;;
22111;SDS011;11222;50.872;4.312;2022-09-29T18:14:30;5.63;;;3.80;;
22111;SDS011;11222;50.872;4.312;2022-09-29T18:16:59;4.43;;;4.00;;
22111;SDS011;11222;50.872;4.312;2022-09-29T18:19:27;7.22;;;4.70;;
22111;SDS011;11222;50.872;4.312;2022-09-29T18:21:53;4.93;;;3.85;;
22111;SDS011;11222;50.872;4.312;2022-09-29T18:24:21;4.53;;;4.07;;
22111;SDS011;11222;50.872;4.312;2022-09-29T18:26:47;4.18;;;3.78;;
22111;SDS011;11222;50.872;4.312;2022-09-29T18:29:16;6.20;;;4.60;;
22111;SDS011;11222;50.872;4.312;2022-09-29T18:31:43;5.35;;;4.63;;
22111;SDS011;11222;50.872;4.312;2022-09-29T18:34:18;4.88;;;4.47;;
22111;SDS011;11222;50.872;4.312;2022-09-29T18:36:45;6.82;;;6.13;;
22111;SDS011;11222;50.872;4.312;2022-09-29T18:39:14;6.25;;;4.13;;
22111;SDS011;11222;50.872;4.312;2022-09-29T18:41:39;5.68;;;3.78;;